Time;durP1;ratioP1;P1;durP2;ratioP2;P2;SDS_P1;SDS_P2;PMS_P1;PMS_P2;Temp;Humidity;BMP_temperature;BMP_pressure;BME280_temperature;BME280_humidity;BME280_pressure;Samples;Min_cycle;Max_cycle;Signal;HPM_P1;HPM_P2
2024/02/20 00:02:18;;;;;;;0.00;0.00;;;;;;;-145.06;100.00;52977.13;10322021;28;20030;-75
2024/02/20 00:07:19;;;;;;;0.00;0.00;;;;;;;-145.06;100.00;52997.38;10290503;28;20026;-74
2024/02/20 00:12:20;;;;;;;0.00;0.00;;;;;;;-145.06;100.00;52989.28;10290423;28;20026;-75
2024/02/20 00:17:21;;;;;;;0.00;0.00;;;;;;;-145.06;100.00;52981.16;10297941;28;20084;-74
2024/02/20 00:22:21;;;;;;;0.10;0.10;;;;;;;-145.06;100.00;52987.25;10293662;28;20105;-74
2024/02/20 00:27:21;;;;;;;0.10;0.10;;;;;;;-145.06;100.00;52975.09;10294789;28;20046;-74
2024/02/20 00:32:21;;;;;;;0.00;0.00;;;;;;;-145.06;100.00;52995.34;10290206;28;20018;-74
2024/02/20 00:37:22;;;;;;;0.00;0.00;;;;;;;-145.06;100.00;52973.06;10290000;28;20042;-75
2024/02/20 00:42:22;;;;;;;0.10;0.10;;;;;;;-145.06;100.00;52964.97;10290257;28;20027;-75
2024/02/20 00:47:22;;;;;;;0.10;0.10;;;;;;;-145.06;100.00;52932.56;10290052;28;20027;-75
2024/02/20 00:52:26;;;;;;;0.10;0.10;;;;;;;-145.06;100.00;52981.16;10290170;28;20102;-75
2024/02/20 00:57:29;;;;;;;0.00;0.00;;;;;;;-145.06;100.00;52975.09;10289932;28;20496;-75
2024/02/20 01:02:29;;;;;;;0.00;0.00;;;;;;;-145.06;100.00;52995.34;10289555;28;20049;-75
2024/02/20 01:07:29;;;;;;;0.00;0.00;;;;;;;-145.06;100.00;52989.28;10303156;28;20023;-75
2024/02/20 01:12:29;;;;;;;0.10;0.10;;;;;;;-145.06;100.00;53025.72;10298169;28;20023;-75
2024/02/20 01:17:30;;;;;;;0.00;0.00;;;;;;;-145.06;100.00;53021.66;10308178;28;20037;-75
2024/02/20 01:22:30;;;;;;;0.10;0.10;;;;;;;-145.06;100.00;53023.69;10289342;28;20027;-75
2024/02/20 01:27:30;;;;;;;0.00;0.00;;;;;;;-145.06;100.00;53031.78;10288136;28;20066;-75
2024/02/20 01:32:30;;;;;;;0.00;0.00;;;;;;;-145.06;100.00;53058.09;10296556;28;20099;-75
2024/02/20 01:37:31;;;;;;;0.08;0.08;;;;;;;-145.06;100.00;53054.06;10296480;28;20026;-75
2024/02/20 01:42:32;;;;;;;0.00;0.00;;;;;;;-145.06;100.00;53076.34;10295287;28;20027;-75
2024/02/20 01:47:33;;;;;;;0.00;0.00;;;;;;;-145.06;100.00;53025.72;10296018;28;20023;-75
2024/02/20 01:52:33;;;;;;;0.10;0.10;;;;;;;-145.06;100.00;52987.25;10295983;28;20053;-75
2024/02/20 01:57:34;;;;;;;0.10;0.10;;;;;;;-145.06;100.00;52977.13;10311590;28;20484;-76
2024/02/20 02:02:34;;;;;;;0.00;0.00;;;;;;;-145.06;100.00;52973.06;10310328;28;20070;-76
2024/02/20 02:07:34;;;;;;;0.00;0.00;;;;;;;-145.06;100.00;52979.16;10303526;28;20058;-75
2024/02/20 02:12:35;;;;;;;0.00;0.00;;;;;;;-145.06;100.00;53009.50;10301018;28;20042;-75
2024/02/20 02:17:36;;;;;;;0.00;0.00;;;;;;;-145.06;100.00;53005.47;10305142;28;20037;-75
2024/02/20 02:22:36;;;;;;;0.10;0.10;;;;;;;-145.06;100.00;53027.75;10294381;28;20480;-76
2024/02/20 02:27:37;;;;;;;0.00;0.00;;;;;;;-145.06;100.00;53050.00;10294379;28;20027;-75
2024/02/20 02:32:39;;;;;;;0.00;0.00;;;;;;;-145.06;100.00;53029.75;10294402;28;20400;-75
2024/02/20 02:37:40;;;;;;;0.10;0.10;;;;;;;-145.06;100.00;53035.84;10293731;28;20030;-75
2024/02/20 02:42:41;;;;;;;0.10;0.10;;;;;;;-145.06;100.00;53027.75;10310600;28;20476;-76
2024/02/20 02:47:41;;;;;;;0.10;0.10;;;;;;;-145.06;100.00;53001.41;10293733;28;20030;-76
2024/02/20 02:52:42;;;;;;;0.00;0.00;;;;;;;-145.06;100.00;53031.78;10293636;28;20015;-75
2024/02/20 02:57:42;;;;;;;0.00;0.00;;;;;;;-145.06;100.00;53009.50;10293614;28;20081;-75
2024/02/20 03:02:42;;;;;;;0.10;0.10;;;;;;;-145.06;100.00;53031.78;10296008;28;20424;-76
2024/02/20 03:07:43;;;;;;;0.00;0.00;;;;;;;-145.06;100.00;53033.81;10293038;28;20030;-76
2024/02/20 03:12:43;;;;;;;0.00;0.00;;;;;;;-145.06;100.00;53029.75;10310035;28;20096;-75
2024/02/20 03:17:46;;;;;;;0.10;0.10;;;;;;;-145.06;100.00;53023.69;10299715;28;20105;-76
2024/02/20 03:22:47;;;;;;;0.00;0.00;;;;;;;-145.06;100.00;53086.47;10291458;28;20509;-75
2024/02/20 03:27:47;;;;;;;0.00;0.00;;;;;;;-145.06;100.00;53066.22;10300160;28;20034;-75
2024/02/20 03:32:50;;;;;;;0.10;0.10;;;;;;;-145.06;100.00;53094.56;10292148;28;20023;-76
2024/02/20 03:37:50;;;;;;;0.10;0.10;;;;;;;-145.06;100.00;53066.22;10310691;28;20019;-76
2024/02/20 03:42:50;;;;;;;0.10;0.10;;;;;;;-145.06;100.00;53054.06;10291818;28;20396;-76
2024/02/20 03:47:51;;;;;;;0.10;0.10;;;;;;;-145.06;100.00;53050.00;10291813;28;20151;-76
2024/02/20 03:52:51;;;;;;;0.00;0.00;;;;;;;-145.06;100.00;53082.41;10296825;28;20025;-75
2024/02/20 03:57:51;;;;;;;0.10;0.10;;;;;;;-145.06;100.00;53054.06;10291972;28;20129;-75
2024/02/20 04:02:54;;;;;;;0.00;0.00;;;;;;;-145.06;100.00;53043.94;10297711;28;20030;-76
2024/02/20 04:07:54;;;;;;;0.10;0.10;;;;;;;-145.06;100.00;53039.88;10296359;28;20040;-76
2024/02/20 04:12:54;;;;;;;0.10;0.10;;;;;;;-145.06;100.00;53052.03;10297210;28;20468;-76
2024/02/20 04:17:55;;;;;;;0.10;0.10;;;;;;;-145.06;100.00;53033.81;10313946;28;20031;-76
2024/02/20 04:22:55;;;;;;;0.05;0.05;;;;;;;-145.06;100.00;53047.97;10296928;28;20031;-76
2024/02/20 04:27:55;;;;;;;0.00;0.00;;;;;;;-145.06;100.00;53019.63;10331288;28;20031;-76
2024/02/20 04:32:56;;;;;;;0.10;0.10;;;;;;;-145.06;100.00;53031.78;10323275;28;20744;-76
2024/02/20 04:37:56;;;;;;;0.00;0.00;;;;;;;-145.06;100.00;53013.56;10290226;28;20180;-76
2024/02/20 04:42:56;;;;;;;0.00;0.00;;;;;;;-145.06;100.00;53007.50;10309231;28;20026;-76
2024/02/20 04:47:56;;;;;;;0.00;0.00;;;;;;;-145.06;100.00;53009.50;10312513;28;20029;-76
2024/02/20 04:52:57;;;;;;;0.05;0.05;;;;;;;-145.06;100.00;53017.63;10291248;28;20026;-76
2024/02/20 04:57:57;;;;;;;0.00;0.00;;;;;;;-145.06;100.00;53011.53;10289747;28;20027;-76
2024/02/20 05:02:57;;;;;;;0.10;0.10;;;;;;;-145.06;100.00;53019.63;10290378;28;20286;-75
2024/02/20 05:07:58;;;;;;;0.03;0.03;;;;;;;-145.06;100.00;53031.78;10296290;28;20113;-76
2024/02/20 05:12:58;;;;;;;0.10;0.10;;;;;;;-145.06;100.00;53060.13;10297455;28;20022;-75
2024/02/20 05:17:58;;;;;;;0.00;0.00;;;;;;;-145.06;100.00;53025.72;10297014;28;20031;-76
2024/02/20 05:22:59;;;;;;;0.10;0.10;;;;;;;-145.06;100.00;53019.63;10297466;28;20481;-76
2024/02/20 05:27:59;;;;;;;0.00;0.00;;;;;;;-145.06;100.00;53009.50;10296467;28;20035;-75
2024/02/20 05:32:59;;;;;;;0.00;0.00;;;;;;;-145.06;100.00;53029.75;10295214;28;20081;-75
2024/02/20 05:37:59;;;;;;;0.00;0.00;;;;;;;-145.06;100.00;53013.56;10309267;28;20076;-75
2024/02/20 05:43:00;;;;;;;0.10;0.10;;;;;;;-145.06;100.00;53033.81;10329855;28;20387;-76
2024/02/20 05:48:03;;;;;;;0.10;0.10;;;;;;;-145.06;100.00;53019.63;10295778;28;20034;-75
2024/02/20 05:53:05;;;;;;;0.00;0.00;;;;;;;-145.06;100.00;53011.53;10333605;28;20022;-75
2024/02/20 05:58:06;;;;;;;0.00;0.00;;;;;;;-145.06;100.00;53011.53;10335711;28;20050;-75
2024/02/20 06:03:06;;;;;;;0.10;0.10;;;;;;;-145.06;100.00;52991.28;10335421;28;20395;-75
2024/02/20 06:08:06;;;;;;;0.00;0.00;;;;;;;-145.06;100.00;52981.16;10328387;28;20050;-75
2024/02/20 06:13:07;;;;;;;0.10;0.10;;;;;;;-145.06;100.00;52993.31;10294963;28;20487;-75
2024/02/20 06:18:07;;;;;;;0.00;0.00;;;;;;;-145.06;100.00;52975.09;10303026;28;20262;-75
2024/02/20 06:23:07;;;;;;;0.10;0.10;;;;;;;-145.06;100.00;52981.16;10304374;28;20030;-75
2024/02/20 06:28:08;;;;;;;0.00;0.00;;;;;;;-145.06;100.00;52985.22;10294176;28;20109;-75
2024/02/20 06:33:08;;;;;;;0.00;0.00;;;;;;;-145.06;100.00;52989.28;10294078;28;20023;-75
2024/02/20 06:38:09;;;;;;;0.00;0.00;;;;;;;-145.06;100.00;52975.09;10293942;28;20505;-75
2024/02/20 06:43:09;;;;;;;0.08;0.08;;;;;;;-145.06;100.00;52969.03;10329567;28;20274;-75
2024/02/20 06:48:09;;;;;;;0.00;0.00;;;;;;;-145.06;100.00;52981.16;10332498;28;20030;-75
2024/02/20 06:53:09;;;;;;;0.10;0.10;;;;;;;-145.06;100.00;52964.97;10313365;28;20093;-75
2024/02/20 06:58:10;;;;;;;0.00;0.00;;;;;;;-145.06;100.00;52989.28;10331888;28;20029;-75
2024/02/20 07:03:12;;;;;;;0.10;0.10;;;;;;;-145.06;100.00;53015.59;10333283;28;20033;-75
2024/02/20 07:08:12;;;;;;;0.10;0.10;;;;;;;-145.06;100.00;52991.28;10312767;28;20034;-75
2024/02/20 07:13:13;;;;;;;0.00;0.00;;;;;;;-145.06;100.00;52975.09;10292733;28;20026;-75
2024/02/20 07:18:13;;;;;;;0.10;0.10;;;;;;;-145.06;100.00;52983.19;10292516;28;20023;-75
2024/02/20 07:23:13;;;;;;;0.00;0.00;;;;;;;-145.06;100.00;52985.22;10316609;28;20476;-75
2024/02/20 07:28:14;;;;;;;0.00;0.00;;;;;;;-145.06;100.00;52985.22;10290696;28;20031;-75
2024/02/20 07:33:14;;;;;;;0.10;0.10;;;;;;;-145.06;100.00;52977.13;10314963;28;20034;-75
2024/02/20 07:38:16;;;;;;;0.10;0.10;;;;;;;-145.06;100.00;52967.00;10309690;28;20050;-75
2024/02/20 07:43:16;;;;;;;0.00;0.00;;;;;;;-145.06;100.00;52938.66;10328839;28;20034;-75
2024/02/20 07:48:19;;;;;;;0.00;0.00;;;;;;;-145.06;100.00;52962.94;10310390;28;20484;-75
2024/02/20 07:53:20;;;;;;;0.10;0.10;;;;;;;-145.06;100.00;52920.44;10291082;28;20023;-75
2024/02/20 07:58:20;;;;;;;0.10;0.10;;;;;;;-145.06;100.00;52857.66;10290777;28;20030;-76
2024/02/20 08:03:23;;;;;;;0.00;0.00;;;;;;;-145.06;100.00;52724.03;10290640;28;20032;-75
2024/02/20 08:08:23;;;;;;;0.10;0.10;;;;;;;-145.06;100.00;52576.25;10290622;28;20114;-76
2024/02/20 08:13:25;;;;;;;0.10;0.10;;;;;;;-145.06;100.00;52470.97;10306801;28;20101;-76
2024/02/20 08:18:25;;;;;;;0.10;0.10;;;;;;;-145.06;100.00;52402.16;10303629;28;20026;-76
2024/02/20 08:23:28;;;;;;;0.10;0.10;;;;;;;-145.06;95.94;52454.78;10302266;28;20027;-76
2024/02/20 08:28:29;;;;;;;0.10;0.10;;;;;;;-145.06;94.91;52450.75;10329089;28;20023;-76
2024/02/20 08:33:29;;;;;;;0.00;0.00;;;;;;;-145.06;91.97;52430.50;10310335;28;20117;-76
2024/02/20 08:38:32;;;;;;;0.10;0.10;;;;;;;-145.06;90.22;52527.66;10333631;28;20595;-76
2024/02/20 08:43:32;;;;;;;0.00;0.00;;;;;;;-145.06;91.22;52485.16;10334728;28;20270;-77
2024/02/20 08:48:33;;;;;;;0.03;0.03;;;;;;;-145.06;91.71;52572.19;10298194;28;20015;-77
2024/02/20 08:53:33;;;;;;;0.00;0.00;;;;;;;-145.06;95.61;52671.41;10297946;28;20042;-76
2024/02/20 08:58:34;;;;;;;0.10;0.10;;;;;;;-145.06;100.00;52717.97;10317710;28;20022;-76
2024/02/20 09:03:36;;;;;;;0.00;0.00;;;;;;;-145.06;100.00;52764.53;10333951;28;20026;-76
2024/02/20 09:08:36;;;;;;;0.10;0.10;;;;;;;-145.06;100.00;52758.47;10310311;28;20030;-76
2024/02/20 09:13:38;;;;;;;0.00;0.00;;;;;;;-145.06;100.00;52817.19;10299322;28;20030;-75
2024/02/20 09:18:38;;;;;;;0.00;0.00;;;;;;;-145.06;100.00;52857.66;10318188;28;20019;-76
2024/02/20 09:23:38;;;;;;;0.10;0.10;;;;;;;-145.06;100.00;52851.59;10296593;28;20026;-75
2024/02/20 09:28:39;;;;;;;0.10;0.10;;;;;;;-145.06;100.00;52855.63;10311766;28;20439;-75
2024/02/20 09:33:39;;;;;;;0.10;0.10;;;;;;;-145.06;100.00;52871.84;10303816;28;20515;-75
2024/02/20 09:38:39;;;;;;;0.00;0.00;;;;;;;-145.06;100.00;52884.00;10311475;28;20500;-75
2024/02/20 09:43:40;;;;;;;0.00;0.00;;;;;;;-145.06;100.00;52865.75;10300261;28;20396;-75
2024/02/20 09:48:41;;;;;;;0.10;0.10;;;;;;;-145.06;100.00;52807.06;10310315;28;20019;-75
2024/02/20 09:53:41;;;;;;;0.10;0.10;;;;;;;-145.06;100.00;52815.16;10295649;28;20412;-75
2024/02/20 09:58:42;;;;;;;0.10;0.10;;;;;;;-145.06;100.00;52843.50;10311296;28;20441;-75
2024/02/20 10:03:44;;;;;;;0.10;0.10;;;;;;;-145.06;100.00;52843.50;10301445;28;20039;-75
2024/02/20 10:08:50;;;;;;;0.10;0.10;;;;;;;-145.06;100.00;52803.00;10295161;28;20400;-75
2024/02/20 10:13:55;;;;;;;0.00;0.00;;;;;;;-145.06;100.00;52841.47;10310370;28;20053;-75
2024/02/20 10:18:57;;;;;;;0.10;0.10;;;;;;;-145.06;100.00;52831.34;10300273;28;20027;-75
2024/02/20 10:24:05;;;;;;;0.10;0.10;;;;;;;-145.06;100.00;52803.00;10299257;28;20089;-75
2024/02/20 10:29:05;;;;;;;0.10;0.10;;;;;;;-145.06;100.00;52762.50;10318758;28;20076;-75
2024/02/20 10:34:06;;;;;;;0.10;0.10;;;;;;;-145.06;100.00;52784.78;10324200;28;20033;-76
2024/02/20 10:39:09;;;;;;;0.10;0.10;;;;;;;-145.06;100.00;52809.06;10334064;28;20057;-75
2024/02/20 10:44:11;;;;;;;0.10;0.10;;;;;;;-145.06;100.00;52786.81;10311695;28;20034;-75
2024/02/20 10:49:23;;;;;;;0.10;0.10;;;;;;;-145.06;100.00;52803.00;10293552;28;20018;-75
2024/02/20 10:54:25;;;;;;;0.10;0.10;;;;;;;-145.06;100.00;52788.84;10316875;28;20373;-75
2024/02/20 10:59:27;;;;;;;0.00;0.00;;;;;;;-145.06;100.00;52756.44;10318939;28;20507;-75
2024/02/20 11:04:28;;;;;;;0.10;0.10;;;;;;;-145.06;100.00;52786.81;10328260;28;20518;-74
2024/02/20 11:09:28;;;;;;;0.10;0.10;;;;;;;-145.06;100.00;52758.47;10321483;28;20026;-75
2024/02/20 11:14:29;;;;;;;0.00;0.00;;;;;;;-145.06;100.00;52726.06;10323929;28;20026;-75
2024/02/20 11:19:32;;;;;;;0.10;0.10;;;;;;;-145.06;100.00;52689.63;10292703;28;20492;-75
2024/02/20 11:24:36;;;;;;;0.05;0.05;;;;;;;-145.06;100.00;52695.69;10312127;28;20038;-76
2024/02/20 11:29:37;;;;;;;0.00;0.00;;;;;;;-145.06;100.00;52701.78;10299798;28;20014;-76
2024/02/20 11:34:37;;;;;;;0.10;0.10;;;;;;;-145.06;100.00;52709.88;10318389;28;20031;-75
2024/02/20 11:39:39;;;;;;;0.00;0.00;;;;;;;-145.06;100.00;52681.53;10300154;28;20023;-75
2024/02/20 11:44:39;;;;;;;0.10;0.10;;;;;;;-145.06;100.00;52689.63;10291238;28;20086;-74
2024/02/20 11:49:39;;;;;;;0.00;0.00;;;;;;;-145.06;100.00;52697.72;10291009;28;20019;-75
2024/02/20 11:54:39;;;;;;;0.00;0.00;;;;;;;-145.06;100.00;52671.41;10290788;28;20026;-75
2024/02/20 11:59:40;;;;;;;0.00;0.00;;;;;;;-145.06;100.00;52671.41;10327732;28;20033;-75
2024/02/20 12:04:40;;;;;;;0.00;0.00;;;;;;;-145.06;100.00;52720.00;10300173;28;20110;-75
2024/02/20 12:09:41;;;;;;;0.10;0.10;;;;;;;-145.06;100.00;52685.56;10297913;28;20253;-75
2024/02/20 12:14:42;;;;;;;0.00;0.00;;;;;;;-145.06;100.00;52709.88;10322175;28;20018;-75
2024/02/20 12:19:42;;;;;;;0.10;0.10;;;;;;;-145.06;100.00;52746.31;10299553;28;20022;-75
2024/02/20 12:24:42;;;;;;;0.10;0.10;;;;;;;-145.06;100.00;52764.53;10291269;28;20039;-75
2024/02/20 12:29:42;;;;;;;0.10;0.10;;;;;;;-145.06;100.00;52768.59;10290260;28;20022;-75
2024/02/20 12:34:43;;;;;;;0.00;0.00;;;;;;;-145.06;100.00;52754.41;10290778;28;20361;-75
2024/02/20 12:39:43;;;;;;;0.00;0.00;;;;;;;-145.06;100.00;52736.19;10292645;28;20023;-75
2024/02/20 12:44:46;;;;;;;0.03;0.03;;;;;;;-145.06;100.00;52730.13;10321160;28;20118;-75
2024/02/20 12:49:47;;;;;;;0.00;0.00;;;;;;;-145.06;100.00;52750.38;10289434;28;20090;-75
2024/02/20 12:54:47;;;;;;;0.10;0.10;;;;;;;-145.06;100.00;52713.91;10304891;28;20034;-74
2024/02/20 12:59:48;;;;;;;0.00;0.00;;;;;;;-145.06;100.00;52717.97;10297172;28;20061;-75
2024/02/20 13:04:48;;;;;;;0.10;0.10;;;;;;;-145.06;100.00;52717.97;10289860;28;20027;-75
2024/02/20 13:09:51;;;;;;;0.10;0.10;;;;;;;-145.06;100.00;52713.91;10291432;28;20101;-74
2024/02/20 13:14:51;;;;;;;0.10;0.10;;;;;;;-145.06;100.00;52697.72;10329671;28;20782;-74
2024/02/20 13:19:52;;;;;;;0.10;0.10;;;;;;;-145.06;100.00;52667.34;10325568;28;20018;-74
2024/02/20 13:24:54;;;;;;;0.00;0.00;;;;;;;-145.06;100.00;52675.44;10318166;28;20121;-74
2024/02/20 13:29:54;;;;;;;0.00;0.00;;;;;;;-145.06;100.00;52709.88;10324770;28;20033;-73
2024/02/20 13:34:54;;;;;;;0.10;0.10;;;;;;;-145.06;100.00;52734.16;10351782;28;20019;-73
2024/02/20 13:39:54;;;;;;;0.10;0.10;;;;;;;-145.06;100.00;52711.91;10295351;28;20383;-74
2024/02/20 13:44:55;;;;;;;0.10;0.10;;;;;;;-145.06;100.00;52697.72;10296112;28;20511;-74
2024/02/20 13:49:55;;;;;;;0.10;0.10;;;;;;;-145.06;100.00;52742.25;10318632;28;20049;-73
2024/02/20 13:54:55;;;;;;;0.10;0.10;;;;;;;-145.06;100.00;52780.72;10306411;28;20496;-74
2024/02/20 13:59:56;;;;;;;0.10;0.10;;;;;;;-145.06;100.00;52736.19;10295525;28;20816;-74
2024/02/20 14:04:56;;;;;;;0.10;0.10;;;;;;;-145.06;100.00;52758.47;10326276;28;20037;-74
2024/02/20 14:09:56;;;;;;;0.00;0.00;;;;;;;-145.06;100.00;52732.13;10322958;28;20074;-74
2024/02/20 14:14:56;;;;;;;0.00;0.00;;;;;;;-145.06;100.00;52756.44;10300269;28;20563;-74
2024/02/20 14:19:57;;;;;;;0.00;0.00;;;;;;;-145.06;100.00;52748.34;10294787;28;20461;-74
2024/02/20 14:24:57;;;;;;;0.10;0.10;;;;;;;-145.06;100.00;52766.56;10294399;28;20484;-75
2024/02/20 14:29:57;;;;;;;0.10;0.10;;;;;;;-145.06;100.00;52754.41;10294423;28;20472;-74
2024/02/20 14:34:58;;;;;;;0.00;0.00;;;;;;;-145.06;100.00;52756.44;10293836;28;20026;-74
2024/02/20 14:39:58;;;;;;;0.10;0.10;;;;;;;-145.06;100.00;52776.69;10325154;28;20118;-74
2024/02/20 14:44:58;;;;;;;0.00;0.00;;;;;;;-145.06;100.00;52782.75;10293813;28;20030;-74
2024/02/20 14:49:58;;;;;;;0.10;0.10;;;;;;;-145.06;100.00;52788.84;10297643;28;20054;-74
2024/02/20 14:54:59;;;;;;;0.10;0.10;;;;;;;-145.06;100.00;52774.66;10293347;28;20436;-75
2024/02/20 14:59:59;;;;;;;0.10;0.10;;;;;;;-145.06;100.00;52823.25;10293186;28;20023;-74
2024/02/20 15:05:00;;;;;;;0.10;0.10;;;;;;;-145.06;100.00;52815.16;10292352;28;20484;-75
2024/02/20 15:10:00;;;;;;;0.00;0.00;;;;;;;-145.06;100.00;52831.34;10292609;28;20023;-74
2024/02/20 15:15:00;;;;;;;0.00;0.00;;;;;;;-145.06;100.00;52815.16;10292583;28;20031;-74
2024/02/20 15:20:03;;;;;;;0.10;0.10;;;;;;;-145.06;100.00;52853.63;10292161;28;20366;-74
2024/02/20 15:25:05;;;;;;;0.10;0.10;;;;;;;-145.06;100.00;52847.53;10291886;28;20374;-74
2024/02/20 15:30:06;;;;;;;0.10;0.10;;;;;;;-145.06;100.00;52839.44;10291757;28;20503;-74
2024/02/20 15:35:07;;;;;;;0.10;0.10;;;;;;;-145.06;100.00;52851.59;10291734;28;20064;-74
2024/02/20 15:40:08;;;;;;;0.10;0.10;;;;;;;-145.06;100.00;52843.50;10291535;28;20027;-74
2024/02/20 15:45:09;;;;;;;0.00;0.00;;;;;;;-145.06;100.00;52871.84;10292050;28;20037;-74
2024/02/20 15:50:09;;;;;;;0.00;0.00;;;;;;;-145.06;100.00;52869.81;10290630;28;20115;-74
2024/02/20 15:55:17;;;;;;;0.10;0.10;;;;;;;-145.06;100.00;52902.22;10291117;28;20436;-74
2024/02/20 16:00:17;;;;;;;0.10;0.10;;;;;;;-145.06;100.00;52865.75;10292084;28;20070;-74
2024/02/20 16:05:18;;;;;;;0.10;0.10;;;;;;;-145.06;100.00;52912.34;10290809;28;20447;-74
2024/02/20 16:10:19;;;;;;;0.10;0.10;;;;;;;-145.06;100.00;52892.09;10290698;28;20019;-74
2024/02/20 16:15:20;;;;;;;0.10;0.10;;;;;;;-145.06;100.00;52896.13;10290505;28;20023;-74
2024/02/20 16:20:20;;;;;;;0.10;0.10;;;;;;;-145.06;100.00;52908.28;10290261;28;20027;-74
2024/02/20 16:25:20;;;;;;;0.00;0.00;;;;;;;-145.06;100.00;52950.81;10290335;28;20035;-75
2024/02/20 16:30:21;;;;;;;0.00;0.00;;;;;;;-145.06;100.00;52928.53;10305210;28;20109;-74
2024/02/20 16:35:21;;;;;;;0.10;0.10;;;;;;;-145.06;100.00;52938.66;10290221;28;20125;-74
2024/02/20 16:40:21;;;;;;;0.10;0.10;;;;;;;-145.06;100.00;52924.47;10288877;28;20475;-74
2024/02/20 16:45:22;;;;;;;0.10;0.10;;;;;;;-145.06;100.00;52932.56;10293307;28;20392;-74
2024/02/20 16:50:23;;;;;;;0.10;0.10;;;;;;;-145.06;100.00;52936.63;10297824;28;20026;-74
2024/02/20 16:55:24;;;;;;;0.10;0.10;;;;;;;-145.06;100.00;52934.59;10289876;28;20022;-74
2024/02/20 17:00:24;;;;;;;0.10;0.10;;;;;;;-145.06;100.00;52944.72;10294334;28;20475;-74
2024/02/20 17:05:26;;;;;;;0.10;0.10;;;;;;;-145.06;100.00;52942.69;10297502;28;20027;-74
2024/02/20 17:10:26;;;;;;;0.10;0.10;;;;;;;-145.06;100.00;52930.56;10296571;28;20264;-74
2024/02/20 17:15:27;;;;;;;0.10;0.10;;;;;;;-145.06;100.00;52920.44;10297232;28;20114;-74
2024/02/20 17:20:28;;;;;;;0.10;0.10;;;;;;;-145.06;100.00;52962.94;10312085;28;20067;-74
2024/02/20 17:25:29;;;;;;;0.00;0.00;;;;;;;-145.06;100.00;52934.59;10321174;28;20515;-74
2024/02/20 17:30:29;;;;;;;0.10;0.10;;;;;;;-145.06;100.00;52924.47;10327762;28;20110;-74
2024/02/20 17:35:29;;;;;;;0.10;0.10;;;;;;;-145.06;100.00;52960.91;10312913;28;20026;-74
2024/02/20 17:40:29;;;;;;;0.00;0.00;;;;;;;-145.06;100.00;52938.66;10313193;28;20021;-74
2024/02/20 17:45:30;;;;;;;0.10;0.10;;;;;;;-145.06;100.00;52924.47;10305648;28;20057;-74
2024/02/20 17:50:32;;;;;;;0.00;0.00;;;;;;;-145.06;100.00;52930.56;10296076;28;20023;-74
2024/02/20 17:55:32;;;;;;;0.10;0.10;;;;;;;-145.06;100.00;52916.38;10299243;28;20022;-74
2024/02/20 18:00:32;;;;;;;0.10;0.10;;;;;;;-145.06;100.00;52924.47;10296773;28;20019;-74
2024/02/20 18:05:33;;;;;;;0.00;0.00;;;;;;;-145.06;100.00;52928.53;10295198;28;20030;-74
2024/02/20 18:10:33;;;;;;;0.10;0.10;;;;;;;-145.06;100.00;52948.78;10294439;28;20098;-75
2024/02/20 18:15:34;;;;;;;0.00;0.00;;;;;;;-145.06;100.00;52912.34;10312077;28;20081;-75
2024/02/20 18:20:34;;;;;;;0.10;0.10;;;;;;;-145.06;100.00;52920.44;10335106;28;20070;-74
2024/02/20 18:25:34;;;;;;;0.10;0.10;;;;;;;-145.06;100.00;52908.28;10295651;28;20274;-74
2024/02/20 18:30:35;;;;;;;0.10;0.10;;;;;;;-145.06;100.00;52890.06;10308818;28;20022;-74
2024/02/20 18:35:35;;;;;;;0.10;0.10;;;;;;;-145.06;100.00;52948.78;10319370;28;20129;-74
2024/02/20 18:40:35;;;;;;;0.10;0.10;;;;;;;-145.06;100.00;52906.25;10293959;28;20065;-74
2024/02/20 18:45:36;;;;;;;0.00;0.00;;;;;;;-145.06;100.00;52920.44;10311026;28;20026;-74
2024/02/20 18:50:36;;;;;;;0.10;0.10;;;;;;;-145.06;100.00;52946.75;10333919;28;20637;-75
2024/02/20 18:55:36;;;;;;;0.00;0.00;;;;;;;-145.06;100.00;52924.47;10319971;28;20027;-74
2024/02/20 19:00:38;;;;;;;0.10;0.10;;;;;;;-145.06;100.00;52896.13;10293058;28;20077;-74
2024/02/20 19:05:38;;;;;;;0.10;0.10;;;;;;;-145.06;100.00;52902.22;10293126;28;20030;-74
2024/02/20 19:10:38;;;;;;;0.10;0.10;;;;;;;-145.06;100.00;52904.22;10294746;28;20109;-75
2024/02/20 19:15:38;;;;;;;0.10;0.10;;;;;;;-145.06;100.00;52904.22;10307622;28;20507;-75
2024/02/20 19:20:39;;;;;;;0.00;0.00;;;;;;;-145.06;100.00;52916.38;10292098;28;20022;-74
2024/02/20 19:25:42;;;;;;;0.10;0.10;;;;;;;-145.06;100.00;52912.34;10291463;28;20035;-74
2024/02/20 19:30:43;;;;;;;0.00;0.00;;;;;;;-145.06;100.00;52896.13;10299497;28;20019;-74
2024/02/20 19:35:43;;;;;;;0.10;0.10;;;;;;;-145.06;100.00;52888.03;10291928;28;20026;-74
2024/02/20 19:40:45;;;;;;;0.10;0.10;;;;;;;-145.06;100.00;52867.78;10320532;28;20384;-74
2024/02/20 19:45:45;;;;;;;0.00;0.00;;;;;;;-145.06;100.00;52871.84;10314423;28;20109;-74
2024/02/20 19:50:45;;;;;;;0.00;0.00;;;;;;;-145.06;100.00;52904.22;10306311;28;20073;-74
2024/02/20 19:55:46;;;;;;;0.00;0.00;;;;;;;-145.06;100.00;52851.59;10291067;28;20400;-74
2024/02/20 20:00:46;;;;;;;0.00;0.00;;;;;;;-145.06;100.00;52839.44;10290993;28;20391;-74
2024/02/20 20:05:46;;;;;;;0.10;0.10;;;;;;;-145.06;100.00;52859.69;10309584;28;20415;-74
2024/02/20 20:10:46;;;;;;;0.10;0.10;;;;;;;-145.06;100.00;52865.75;10298147;28;20054;-75
2024/02/20 20:15:47;;;;;;;0.10;0.10;;;;;;;-145.06;100.00;52863.75;10297348;28;20070;-74
2024/02/20 20:20:47;;;;;;;0.00;0.00;;;;;;;-145.06;100.00;52884.00;10290461;28;20018;-74
2024/02/20 20:25:47;;;;;;;0.10;0.10;;;;;;;-145.06;100.00;52884.00;10321595;28;20026;-74
2024/02/20 20:30:48;;;;;;;0.00;0.00;;;;;;;-145.06;100.00;52867.78;10305613;28;20266;-75
2024/02/20 20:35:48;;;;;;;0.00;0.00;;;;;;;-145.06;100.00;52865.75;10289701;28;20110;-74
2024/02/20 20:40:50;;;;;;;0.00;0.00;;;;;;;-145.06;100.00;52863.75;10292795;28;20277;-75
2024/02/20 20:45:50;;;;;;;0.10;0.10;;;;;;;-145.06;100.00;52851.59;10330161;28;20487;-75
2024/02/20 20:50:51;;;;;;;0.10;0.10;;;;;;;-145.06;100.00;52861.72;10296965;28;20110;-74
2024/02/20 20:55:51;;;;;;;0.10;0.10;;;;;;;-145.06;100.00;52861.72;10315708;28;20027;-75
2024/02/20 21:00:51;;;;;;;0.00;0.00;;;;;;;-145.06;100.00;52871.84;10323945;28;20027;-74
2024/02/20 21:05:52;;;;;;;0.10;0.10;;;;;;;-145.06;100.00;52843.50;10304513;28;20488;-74
2024/02/20 21:10:54;;;;;;;0.10;0.10;;;;;;;-145.06;100.00;52827.28;10289439;28;20106;-74
2024/02/20 21:15:55;;;;;;;0.10;0.10;;;;;;;-145.06;100.00;52865.75;10289492;28;20045;-75
2024/02/20 21:20:55;;;;;;;0.00;0.00;;;;;;;-145.06;100.00;52813.13;10294014;28;20018;-75
2024/02/20 21:25:55;;;;;;;0.10;0.10;;;;;;;-145.06;100.00;52827.28;10303660;28;20691;-74
2024/02/20 21:30:56;;;;;;;0.10;0.10;;;;;;;-145.06;100.00;52807.06;10299352;28;20510;-74
2024/02/20 21:35:58;;;;;;;0.00;0.00;;;;;;;-145.06;100.00;52827.28;10321429;28;20277;-74
2024/02/20 21:40:58;;;;;;;0.00;0.00;;;;;;;-145.06;100.00;52839.44;10287618;28;20050;-74
2024/02/20 21:45:58;;;;;;;0.10;0.10;;;;;;;-145.06;100.00;52800.97;10291069;28;20503;-75
2024/02/20 21:50:59;;;;;;;0.10;0.10;;;;;;;-145.06;100.00;52772.63;10295854;28;20106;-74
2024/02/20 21:55:59;;;;;;;0.00;0.00;;;;;;;-145.06;100.00;52762.50;10298406;28;20027;-75
2024/02/20 22:01:01;;;;;;;0.00;0.00;;;;;;;-145.06;100.00;52736.19;10311357;28;20023;-75
2024/02/20 22:06:05;;;;;;;0.00;0.00;;;;;;;-145.06;100.00;52726.06;10324120;28;20113;-74
2024/02/20 22:11:05;;;;;;;0.10;0.10;;;;;;;-145.06;100.00;52705.81;10325171;28;20023;-75
2024/02/20 22:16:06;;;;;;;0.00;0.00;;;;;;;-145.06;100.00;52699.75;10308337;28;20032;-74
2024/02/20 22:21:06;;;;;;;0.10;0.10;;;;;;;-145.06;100.00;52720.00;10323708;28;20286;-74
2024/02/20 22:26:07;;;;;;;0.10;0.10;;;;;;;-145.06;100.00;52687.59;10293073;28;20038;-75
2024/02/20 22:31:07;;;;;;;0.10;0.10;;;;;;;-145.06;100.00;52709.88;10299510;28;20030;-74